createdAt,value
2023-03-30T00:02:32.090Z,27.90
2023-03-30T00:05:10.789Z,26.10
2023-03-30T00:07:48.860Z,27.30
2023-03-30T00:10:24.516Z,30.00
2023-03-30T00:12:59.670Z,31.00
2023-03-30T00:15:35.103Z,28.90
2023-03-30T00:18:11.934Z,27.50
2023-03-30T00:20:47.516Z,26.90
2023-03-30T00:23:21.116Z,24.10
2023-03-30T00:25:56.457Z,22.90
2023-03-30T00:28:33.471Z,24.60
2023-03-30T00:31:13.952Z,24.60
2023-03-30T00:33:49.596Z,23.50
2023-03-30T00:36:24.775Z,25.60
2023-03-30T00:39:01.476Z,26.20
2023-03-30T00:41:39.360Z,26.10
2023-03-30T00:44:44.678Z,24.50
2023-03-30T00:47:24.509Z,26.30
2023-03-30T00:49:59.948Z,23.90
2023-03-30T00:52:38.221Z,26.10
2023-03-30T00:55:14.662Z,25.60
2023-03-30T00:57:51.590Z,26.20
2023-03-30T01:00:27.127Z,24.50
2023-03-30T01:03:13.344Z,23.10
2023-03-30T01:05:47.626Z,23.30
2023-03-30T01:08:27.740Z,24.60
2023-03-30T01:11:04.204Z,21.60
2023-03-30T01:13:46.033Z,21.30
2023-03-30T01:16:29.349Z,24.30
2023-03-30T01:19:19.875Z,23.90
2023-03-30T01:22:15.729Z,22.90
2023-03-30T01:25:22.106Z,22.00
2023-03-30T01:28:30.731Z,23.30
2023-03-30T01:31:44.993Z,24.30
2023-03-30T01:34:52.376Z,22.20
2023-03-30T01:38:07.987Z,23.80
2023-03-30T01:40:47.024Z,24.40
2023-03-30T01:43:28.791Z,23.10
2023-03-30T01:46:09.989Z,22.30
2023-03-30T01:48:53.200Z,25.10
2023-03-30T01:51:33.807Z,23.10
2023-03-30T01:54:20.946Z,25.00
2023-03-30T01:57:02.426Z,25.90
2023-03-30T01:59:42.968Z,28.60
2023-03-30T02:02:25.027Z,25.10
2023-03-30T02:05:02.439Z,25.10
2023-03-30T02:07:42.668Z,24.60
2023-03-30T02:10:20.923Z,21.70
2023-03-30T02:12:58.058Z,22.80
2023-03-30T02:15:37.105Z,21.10
2023-03-30T02:18:11.915Z,21.00
2023-03-30T02:20:50.680Z,23.50
2023-03-30T02:23:32.163Z,19.90
2023-03-30T02:26:08.324Z,19.40
2023-03-30T02:28:44.820Z,22.90
2023-03-30T02:31:20.475Z,20.30
2023-03-30T02:34:12.557Z,21.60
2023-03-30T02:37:12.452Z,21.30
2023-03-30T02:40:00.406Z,20.20
2023-03-30T02:43:08.632Z,24.30
2023-03-30T02:45:53.988Z,22.70
2023-03-30T02:48:42.874Z,21.50
2023-03-30T02:51:36.130Z,23.40
2023-03-30T02:54:36.079Z,24.40
2023-03-30T02:57:57.427Z,25.00
2023-03-30T03:00:52.965Z,24.10
2023-03-30T03:03:40.537Z,25.00
2023-03-30T03:06:16.333Z,23.80
2023-03-30T03:08:59.728Z,23.30
2023-03-30T03:11:37.803Z,21.50
2023-03-30T03:14:12.749Z,23.40
2023-03-30T03:16:49.796Z,22.60
2023-03-30T03:19:26.017Z,26.80
2023-03-30T03:22:03.101Z,23.20
2023-03-30T03:24:44.951Z,23.70
2023-03-30T03:27:42.674Z,22.30
2023-03-30T03:30:28.792Z,22.70
2023-03-30T03:33:11.774Z,23.50
2023-03-30T03:35:47.995Z,33.30
2023-03-30T03:38:22.186Z,26.40
2023-03-30T03:41:02.054Z,23.80
2023-03-30T03:43:37.432Z,23.90
2023-03-30T03:46:13.806Z,22.20
2023-03-30T03:48:51.072Z,24.60
2023-03-30T03:51:26.641Z,24.10
2023-03-30T03:54:01.670Z,23.30
2023-03-30T03:56:36.706Z,23.40
2023-03-30T03:59:13.132Z,22.90
2023-03-30T04:01:48.958Z,23.90
2023-03-30T04:04:24.220Z,25.80
2023-03-30T04:07:00.107Z,24.60
2023-03-30T04:09:41.801Z,22.30
2023-03-30T04:12:36.193Z,21.20
2023-03-30T04:15:20.971Z,21.10
2023-03-30T04:18:13.412Z,23.80
2023-03-30T04:20:58.005Z,23.20
2023-03-30T04:23:55.730Z,23.70
2023-03-30T04:26:51.027Z,22.00
2023-03-30T04:29:36.995Z,26.00
2023-03-30T04:32:24.364Z,24.90
2023-03-30T04:35:06.587Z,24.70
2023-03-30T04:37:54.739Z,23.90
2023-03-30T04:40:49.221Z,25.00
2023-03-30T04:43:34.697Z,24.60
2023-03-30T04:46:09.791Z,24.10
2023-03-30T04:48:58.962Z,23.30
2023-03-30T04:51:48.477Z,23.70
2023-03-30T04:54:43.721Z,23.80
2023-03-30T04:57:56.455Z,25.30
2023-03-30T05:01:01.418Z,24.30
2023-03-30T05:04:11.628Z,27.50
2023-03-30T05:07:11.163Z,27.80
2023-03-30T05:10:15.397Z,29.20
2023-03-30T05:12:51.846Z,25.80
2023-03-30T05:15:46.198Z,23.90
2023-03-30T05:18:54.437Z,26.30
2023-03-30T05:21:46.971Z,24.90
2023-03-30T05:24:43.986Z,26.60
2023-03-30T05:27:34.779Z,27.40
2023-03-30T05:30:27.490Z,26.20
2023-03-30T05:33:21.201Z,25.60
2023-03-30T05:36:04.926Z,25.90
2023-03-30T05:39:07.821Z,26.60
2023-03-30T05:41:59.877Z,24.80
2023-03-30T05:45:00.793Z,29.80
2023-03-30T05:48:15.521Z,50.70
2023-03-30T05:51:12.377Z,87.80
2023-03-30T05:54:05.995Z,95.50
2023-03-30T05:57:06.186Z,71.20
2023-03-30T05:59:51.931Z,94.30
2023-03-30T06:02:37.009Z,45.70
2023-03-30T06:05:15.206Z,34.50
2023-03-30T06:07:51.699Z,25.00
2023-03-30T06:10:28.742Z,27.00
2023-03-30T06:13:08.457Z,26.40
2023-03-30T06:15:54.702Z,25.40
2023-03-30T06:18:32.152Z,27.30
2023-03-30T06:21:30.261Z,27.10
2023-03-30T06:24:25.866Z,59.70
2023-03-30T06:27:06.027Z,38.80
2023-03-30T06:29:45.044Z,44.00
2023-03-30T06:32:20.535Z,34.80
2023-03-30T06:35:04.270Z,33.40
2023-03-30T06:37:41.088Z,33.80
2023-03-30T06:40:21.065Z,32.00
2023-03-30T06:42:58.630Z,46.40
2023-03-30T06:45:59.217Z,44.10
2023-03-30T06:48:37.784Z,35.20
2023-03-30T06:51:36.736Z,29.10
2023-03-30T06:54:21.475Z,28.60
2023-03-30T06:57:06.110Z,27.60
2023-03-30T06:59:42.886Z,26.90
2023-03-30T07:02:32.355Z,29.90
2023-03-30T07:05:25.285Z,29.80
2023-03-30T07:08:11.216Z,26.40
2023-03-30T07:10:56.106Z,25.70
2023-03-30T07:13:33.553Z,28.70
2023-03-30T07:16:09.189Z,29.40
2023-03-30T07:18:48.030Z,27.20
2023-03-30T07:21:23.918Z,30.20
2023-03-30T07:24:01.506Z,28.10
2023-03-30T07:26:43.345Z,29.70
2023-03-30T07:29:18.364Z,27.10
2023-03-30T07:32:00.290Z,37.80
2023-03-30T07:34:38.664Z,35.50
2023-03-30T07:37:20.308Z,30.60
2023-03-30T07:39:58.684Z,26.00
2023-03-30T07:42:32.501Z,25.70
2023-03-30T07:45:16.066Z,22.90
2023-03-30T07:47:52.966Z,24.10
2023-03-30T07:50:31.029Z,27.30
2023-03-30T07:53:09.176Z,29.10
2023-03-30T07:55:46.957Z,28.30
2023-03-30T07:58:29.578Z,24.80
2023-03-30T08:01:05.635Z,27.90
2023-03-30T08:03:52.712Z,24.60
2023-03-30T08:06:27.452Z,24.10
2023-03-30T08:09:05.190Z,25.40
2023-03-30T08:11:39.584Z,31.40
2023-03-30T08:14:14.910Z,23.00
2023-03-30T08:16:48.837Z,24.20
2023-03-30T08:19:24.899Z,22.00
2023-03-30T08:21:58.997Z,25.80
2023-03-30T08:24:34.654Z,29.50
2023-03-30T08:27:09.703Z,29.80
2023-03-30T08:29:45.823Z,24.70
2023-03-30T08:32:21.324Z,26.10
2023-03-30T08:34:57.115Z,25.30
2023-03-30T08:37:36.132Z,26.40
2023-03-30T08:40:19.689Z,25.20
2023-03-30T08:43:07.032Z,24.90
2023-03-30T08:45:43.562Z,26.40
2023-03-30T08:48:21.838Z,25.80
2023-03-30T08:51:02.594Z,23.50
2023-03-30T08:53:39.634Z,23.80
2023-03-30T08:56:22.891Z,23.60
2023-03-30T08:59:09.639Z,25.10
2023-03-30T09:01:55.342Z,26.00
2023-03-30T09:04:44.751Z,25.40
2023-03-30T09:07:24.749Z,25.80
2023-03-30T09:10:02.667Z,26.70
2023-03-30T09:12:43.412Z,28.70
2023-03-30T09:15:22.140Z,24.70
2023-03-30T09:18:04.690Z,23.40
2023-03-30T09:20:45.517Z,27.00
2023-03-30T09:23:22.604Z,22.80
2023-03-30T09:26:05.266Z,25.50
2023-03-30T09:28:50.787Z,22.70
2023-03-30T09:31:32.324Z,36.00
2023-03-30T09:34:16.131Z,24.00
2023-03-30T09:36:58.528Z,21.00
2023-03-30T09:39:36.289Z,21.00
2023-03-30T09:42:24.418Z,26.90
2023-03-30T09:45:09.193Z,32.20
2023-03-30T09:47:45.342Z,22.90
2023-03-30T09:50:27.292Z,21.20
2023-03-30T09:53:05.431Z,22.40
2023-03-30T09:55:40.289Z,21.20
2023-03-30T09:58:19.697Z,23.10
2023-03-30T10:01:10.554Z,21.70
2023-03-30T10:03:46.619Z,22.00
2023-03-30T10:06:24.901Z,21.20
2023-03-30T10:09:03.196Z,20.00
2023-03-30T10:11:41.637Z,25.70
2023-03-30T10:17:24.803Z,19.90
2023-03-30T10:20:23.903Z,25.60
2023-03-30T10:23:06.279Z,25.40
2023-03-30T10:25:46.974Z,21.50
2023-03-30T10:28:28.153Z,23.90
2023-03-30T10:31:07.029Z,21.10
2023-03-30T10:33:46.909Z,21.90
2023-03-30T10:36:32.666Z,21.40
2023-03-30T10:39:14.543Z,19.80
2023-03-30T10:41:52.280Z,23.90
2023-03-30T10:44:33.799Z,22.10
2023-03-30T10:48:02.985Z,21.90
2023-03-30T10:50:51.670Z,19.70
2023-03-30T10:53:41.755Z,21.10
2023-03-30T10:56:26.429Z,21.00
2023-03-30T10:59:36.007Z,22.80
2023-03-30T11:02:46.278Z,18.60
2023-03-30T11:05:26.429Z,19.00
2023-03-30T11:08:07.115Z,19.70
2023-03-30T11:10:45.029Z,20.10
2023-03-30T11:13:26.455Z,22.20
2023-03-30T11:16:15.166Z,20.40
2023-03-30T11:18:55.900Z,17.00
2023-03-30T11:21:42.459Z,15.60
2023-03-30T11:24:21.842Z,17.10
2023-03-30T11:27:03.087Z,16.70
2023-03-30T11:29:45.305Z,16.40
2023-03-30T11:32:49.211Z,19.30
2023-03-30T11:35:33.613Z,32.60
2023-03-30T11:38:15.242Z,32.10
2023-03-30T11:40:54.073Z,17.20
2023-03-30T11:43:32.406Z,18.30
2023-03-30T11:46:16.030Z,17.70
2023-03-30T11:49:29.469Z,19.80
2023-03-30T11:52:15.061Z,21.50
2023-03-30T11:55:28.521Z,19.20
2023-03-30T11:58:16.862Z,18.90
2023-03-30T12:01:11.022Z,19.60
2023-03-30T12:03:50.009Z,20.50
2023-03-30T12:06:55.546Z,18.30
2023-03-30T12:09:35.526Z,20.80
2023-03-30T12:12:16.426Z,19.50
2023-03-30T12:15:01.918Z,23.90
2023-03-30T12:17:47.843Z,19.90
2023-03-30T12:20:51.425Z,20.40
2023-03-30T12:23:44.381Z,22.10
2023-03-30T12:26:31.998Z,18.00
2023-03-30T12:32:25.118Z,17.50
2023-03-30T12:35:25.388Z,15.00
2023-03-30T12:38:03.271Z,19.90
2023-03-30T12:40:39.476Z,14.20
2023-03-30T12:43:23.621Z,16.70
2023-03-30T12:46:08.272Z,15.90
2023-03-30T12:48:52.896Z,14.10
2023-03-30T12:51:45.723Z,14.00
2023-03-30T12:54:52.323Z,12.80
2023-03-30T12:57:41.035Z,15.60
2023-03-30T13:00:49.905Z,14.80
2023-03-30T13:03:42.552Z,16.00
2023-03-30T13:06:27.478Z,17.30
2023-03-30T13:09:29.277Z,15.20
2023-03-30T13:12:38.875Z,14.40
2023-03-30T13:15:42.749Z,15.90
2023-03-30T13:18:38.300Z,17.20
2023-03-30T13:21:26.287Z,16.20
2023-03-30T13:24:24.451Z,14.70
2023-03-30T13:27:23.052Z,15.90
2023-03-30T13:30:01.824Z,17.30
2023-03-30T13:32:48.822Z,14.80
2023-03-30T13:36:01.996Z,16.20
2023-03-30T13:38:52.815Z,14.80
2023-03-30T13:41:48.032Z,15.90
2023-03-30T13:44:37.866Z,15.50
2023-03-30T13:47:47.053Z,18.00
2023-03-30T13:50:28.775Z,14.80
2023-03-30T13:53:10.305Z,14.40
2023-03-30T13:55:48.683Z,14.80
2023-03-30T13:58:29.960Z,16.10
2023-03-30T14:01:10.019Z,16.50
2023-03-30T14:03:47.568Z,16.40
2023-03-30T14:06:23.501Z,18.10
2023-03-30T14:09:16.929Z,16.40
2023-03-30T14:11:54.986Z,15.30
2023-03-30T14:14:36.391Z,16.20
2023-03-30T14:17:22.334Z,17.20
2023-03-30T14:20:16.795Z,16.40
2023-03-30T14:22:54.311Z,16.90
2023-03-30T14:25:31.734Z,16.40
2023-03-30T14:28:14.433Z,19.10
2023-03-30T14:30:58.834Z,47.00
2023-03-30T14:33:40.796Z,26.70
2023-03-30T14:36:19.020Z,79.00
2023-03-30T14:38:57.877Z,51.70
2023-03-30T14:41:32.966Z,30.40
2023-03-30T14:44:09.972Z,38.30
2023-03-30T14:46:49.858Z,47.20
2023-03-30T14:49:28.954Z,32.80
2023-03-30T14:52:09.472Z,27.90
2023-03-30T14:54:54.265Z,30.30
2023-03-30T14:57:38.978Z,26.70
2023-03-30T15:00:22.666Z,19.20
2023-03-30T15:03:01.801Z,17.50
2023-03-30T15:05:41.771Z,26.00
2023-03-30T15:08:30.414Z,34.80
2023-03-30T15:11:09.148Z,76.80
2023-03-30T15:13:50.135Z,69.40
2023-03-30T15:16:30.817Z,30.70
2023-03-30T15:19:09.004Z,26.80
2023-03-30T15:21:44.074Z,18.00
2023-03-30T15:24:26.746Z,20.10
2023-03-30T15:27:04.966Z,18.90
2023-03-30T15:29:41.160Z,19.00
2023-03-30T15:32:21.492Z,18.10
2023-03-30T15:35:21.744Z,18.70
2023-03-30T15:38:00.454Z,22.50
2023-03-30T15:40:38.891Z,23.20
2023-03-30T15:43:25.947Z,37.40
2023-03-30T15:46:04.272Z,38.40
2023-03-30T15:48:45.965Z,37.30
2023-03-30T15:51:27.867Z,29.40
2023-03-30T15:54:13.334Z,23.80
2023-03-30T15:56:57.431Z,21.50
2023-03-30T15:59:36.076Z,24.90
2023-03-30T16:02:22.137Z,20.40
2023-03-30T16:04:55.877Z,19.80
2023-03-30T16:07:32.748Z,19.50
2023-03-30T16:10:10.270Z,22.00
2023-03-30T16:12:47.304Z,23.10
2023-03-30T16:15:26.067Z,21.80
2023-03-30T16:18:01.892Z,21.10
2023-03-30T16:20:39.321Z,19.80
2023-03-30T16:23:14.629Z,22.10
2023-03-30T16:25:48.539Z,22.70
2023-03-30T16:28:24.300Z,20.40
2023-03-30T16:31:04.012Z,25.00
2023-03-30T16:33:39.135Z,31.00
2023-03-30T16:36:17.924Z,24.50
2023-03-30T16:38:54.122Z,25.60
2023-03-30T16:41:29.295Z,56.10
2023-03-30T16:44:03.069Z,48.10
2023-03-30T16:46:37.235Z,106.30
2023-03-30T16:49:16.023Z,82.10
2023-03-30T16:51:49.857Z,46.90
2023-03-30T16:54:32.068Z,32.00
2023-03-30T16:57:09.813Z,93.00
2023-03-30T16:59:46.174Z,154.90
2023-03-30T17:02:22.915Z,136.80
2023-03-30T17:04:59.559Z,79.90
2023-03-30T17:07:37.689Z,64.40
2023-03-30T17:10:29.270Z,41.10
2023-03-30T17:13:05.359Z,50.50
2023-03-30T17:15:40.171Z,48.90
2023-03-30T17:18:20.424Z,41.60
2023-03-30T17:21:02.035Z,31.30
2023-03-30T17:23:39.290Z,27.70
2023-03-30T17:26:16.446Z,27.60
2023-03-30T17:28:52.470Z,26.20
2023-03-30T17:31:27.797Z,24.90
2023-03-30T17:34:03.705Z,24.90
2023-03-30T17:36:39.101Z,25.60
2023-03-30T17:39:16.942Z,28.90
2023-03-30T17:41:54.457Z,28.60
2023-03-30T17:44:29.724Z,24.30
2023-03-30T17:47:06.402Z,25.30
2023-03-30T17:49:43.227Z,25.60
2023-03-30T17:52:17.202Z,26.50
2023-03-30T17:54:52.733Z,26.60
2023-03-30T17:57:28.017Z,28.20
2023-03-30T18:00:03.304Z,26.30
2023-03-30T18:02:39.896Z,27.50
2023-03-30T18:05:16.879Z,27.20
2023-03-30T18:07:52.714Z,29.00
2023-03-30T18:10:31.828Z,27.20
2023-03-30T18:13:06.919Z,28.80
2023-03-30T18:15:41.404Z,27.30
2023-03-30T18:18:22.625Z,27.30
2023-03-30T18:21:02.960Z,25.40
2023-03-30T18:23:38.628Z,26.00
2023-03-30T18:26:15.287Z,26.90
2023-03-30T18:28:49.020Z,29.50
2023-03-30T18:31:23.670Z,29.50
2023-03-30T18:34:00.469Z,32.90
2023-03-30T18:36:34.707Z,33.20
2023-03-30T18:39:17.193Z,31.60
2023-03-30T18:41:51.710Z,31.50
2023-03-30T18:44:25.372Z,30.80
2023-03-30T18:47:01.774Z,29.80
2023-03-30T18:49:38.393Z,29.80
2023-03-30T18:52:16.835Z,28.10
2023-03-30T18:54:51.459Z,29.60
2023-03-30T18:57:26.570Z,27.40
2023-03-30T19:00:02.496Z,31.00
2023-03-30T19:02:38.687Z,31.70
2023-03-30T19:05:17.608Z,29.10
2023-03-30T19:07:53.124Z,28.00
2023-03-30T19:10:29.870Z,30.80
2023-03-30T19:13:05.444Z,29.90
2023-03-30T19:15:42.099Z,31.20
2023-03-30T19:18:18.143Z,29.20
2023-03-30T19:20:56.340Z,32.30
2023-03-30T19:23:30.621Z,31.00
2023-03-30T19:26:05.501Z,31.20
2023-03-30T19:28:41.761Z,34.90
2023-03-30T19:31:18.996Z,34.90
2023-03-30T19:33:56.003Z,33.80
2023-03-30T19:36:32.512Z,34.10
2023-03-30T19:39:06.753Z,34.20
2023-03-30T19:41:42.892Z,33.80
2023-03-30T19:44:18.201Z,33.50
2023-03-30T19:46:51.531Z,32.20
2023-03-30T19:49:25.757Z,35.80
2023-03-30T19:51:59.254Z,34.70
2023-03-30T19:54:36.249Z,31.00
2023-03-30T19:57:13.534Z,30.50
2023-03-30T19:59:49.248Z,33.80
2023-03-30T20:02:24.155Z,32.90
2023-03-30T20:05:04.119Z,33.20
2023-03-30T20:07:38.152Z,31.30
2023-03-30T20:10:20.121Z,32.80
2023-03-30T20:12:56.533Z,31.40
2023-03-30T20:15:34.068Z,29.50
2023-03-30T20:18:08.836Z,28.70
2023-03-30T20:20:44.428Z,26.50
2023-03-30T20:23:20.725Z,24.20
2023-03-30T20:25:59.029Z,22.00
2023-03-30T20:28:35.610Z,15.90
2023-03-30T20:31:20.092Z,17.50
2023-03-30T20:34:03.539Z,14.30
2023-03-30T20:36:37.468Z,13.20
2023-03-30T20:39:14.341Z,11.00
2023-03-30T20:41:54.537Z,13.40
2023-03-30T20:44:32.243Z,13.10
2023-03-30T20:47:09.095Z,12.20
2023-03-30T20:49:44.304Z,11.40
2023-03-30T20:52:18.754Z,10.50
2023-03-30T20:54:53.803Z,8.30
2023-03-30T20:57:27.839Z,7.30
2023-03-30T21:00:07.392Z,8.10
2023-03-30T21:02:45.047Z,8.00
2023-03-30T21:05:20.829Z,7.70
2023-03-30T21:08:00.200Z,7.60
2023-03-30T21:10:36.646Z,7.70
2023-03-30T21:13:11.201Z,7.50
2023-03-30T21:15:47.000Z,7.20
2023-03-30T21:18:23.068Z,7.80
2023-03-30T21:20:58.451Z,7.30
2023-03-30T21:23:34.460Z,7.20
2023-03-30T21:26:10.269Z,5.50
2023-03-30T21:28:46.721Z,5.60
2023-03-30T21:31:21.798Z,6.00
2023-03-30T21:33:58.230Z,6.30
2023-03-30T21:36:33.923Z,6.90
2023-03-30T21:39:08.926Z,6.40
2023-03-30T21:41:43.683Z,5.70
2023-03-30T21:44:16.897Z,5.60
2023-03-30T21:46:55.210Z,5.00
2023-03-30T21:49:29.724Z,5.70
2023-03-30T21:52:04.778Z,6.50
2023-03-30T21:54:56.162Z,7.00
2023-03-30T21:57:32.491Z,4.90
2023-03-30T22:00:10.640Z,6.00
2023-03-30T22:03:06.122Z,5.30
2023-03-30T22:05:44.614Z,5.90
2023-03-30T22:08:19.886Z,7.00
2023-03-30T22:11:01.051Z,7.20
2023-03-30T22:13:35.885Z,7.00
2023-03-30T22:16:13.361Z,7.20
2023-03-30T22:18:52.043Z,7.20
2023-03-30T22:21:34.846Z,8.00
2023-03-30T22:24:15.711Z,8.80
2023-03-30T22:26:50.543Z,9.10
2023-03-30T22:29:25.450Z,10.70
2023-03-30T22:32:01.861Z,8.80
2023-03-30T22:34:37.789Z,8.40
2023-03-30T22:37:12.776Z,8.60
2023-03-30T22:39:47.935Z,9.40
2023-03-30T22:42:23.624Z,9.30
2023-03-30T22:44:59.241Z,8.80
2023-03-30T22:47:36.864Z,11.90
2023-03-30T22:50:19.004Z,9.80
2023-03-30T22:52:57.116Z,10.60
2023-03-30T22:55:33.016Z,11.40
2023-03-30T22:58:11.471Z,10.10
2023-03-30T23:00:47.074Z,11.30
2023-03-30T23:03:23.198Z,11.30
2023-03-30T23:06:01.406Z,12.00
2023-03-30T23:08:36.148Z,12.00
2023-03-30T23:11:13.723Z,13.10
2023-03-30T23:13:49.282Z,14.40
2023-03-30T23:16:25.306Z,14.50
2023-03-30T23:19:01.526Z,16.20
2023-03-30T23:21:36.196Z,14.70
2023-03-30T23:24:15.214Z,15.40
2023-03-30T23:26:49.768Z,15.40
2023-03-30T23:29:33.021Z,15.20
2023-03-30T23:32:08.917Z,15.80
2023-03-30T23:34:44.867Z,16.10
2023-03-30T23:37:19.851Z,16.00
2023-03-30T23:39:54.333Z,16.70
2023-03-30T23:42:30.441Z,16.00
2023-03-30T23:45:06.856Z,16.90
2023-03-30T23:47:44.274Z,16.00
2023-03-30T23:50:21.121Z,16.30
2023-03-30T23:52:56.668Z,15.30
2023-03-30T23:55:31.364Z,14.40
2023-03-30T23:58:06.168Z,14.00
